TAF Text Data
IDs:
Format:
Raw Decoded Include METAR

Data at: 1504 UTC 17 Nov 2019

Region: TOP
KATL 171358Z 1714/1818 05006KT P6SM BKN020 BKN035
  FM171600 06006KT P6SM SCT025 SCT035
  FM171900 02004KT P6SM SCT045 SCT250
  FM180600 VRB03KT P6SM BKN040
  FM181000 27005KT P6SM SCT025 OVC035
  FM181400 27007KT P6SM SCT040


KBOS 171121Z 1712/1818 36010KT P6SM SCT030 OVC035
  FM171500 02012G22KT P6SM BKN030
  FM180400 05015G25KT P6SM OVC010
  FM180500 05015G25KT P6SM VCSH OVC010
  FM180900 02015G27KT 3SM -RA BR OVC010


KBWI 171501Z 1715/1818 04010KT P6SM OVC022
  FM172000 03009KT P6SM OVC030
  FM180200 35008KT P6SM OVC015
  FM181400 34007KT P6SM BKN030


KCLE 171121Z 1712/1818 14006KT P6SM SKC
  FM171700 16005KT P6SM SCT250
  FM180000 13004KT P6SM BKN250
  FM180600 VRB03KT P6SM OVC120
  FM181500 13003KT P6SM OVC080


KCLT 171419Z 1714/1818 02011KT P6SM SCT050 SCT200
  TEMPO 1714/1718 BKN050
  FM171900 02007KT P6SM SCT080 BKN250
  FM180700 35003KT P6SM BKN040
  FM181100 03003KT P6SM BKN025
  FM181700 23003KT P6SM SCT030


KCVG 171133Z 1712/1818 05004KT P6SM BKN250
  FM171400 09003KT P6SM SCT250
  FM171600 12005KT P6SM SCT250
  FM171800 16005KT P6SM BKN200
  FM172200 VRB03KT P6SM BKN150
  FM181400 24005KT P6SM BKN100


KDCA 171501Z 1715/1818 03011KT P6SM OVC023
  FM172000 01009KT P6SM OVC030
  FM180300 35007KT P6SM OVC015
  FM181100 34007KT P6SM BKN025


KDEN 171456Z 1715/1818 17010KT P6SM FEW100
  FM172000 06008KT P6SM SCT100 BKN200
  FM172300 12007KT P6SM SCT100 BKN200
  FM180200 18008KT P6SM SCT100 BKN200
  FM180900 25007KT P6SM SCT100 SCT200


KDFW 171129Z 1712/1818 15007KT P6SM SCT250
  FM171500 21009KT P6SM FEW060 SCT250
  FM171800 33010KT P6SM FEW250


KDTW 171502Z 1715/1818 13005KT P6SM BKN250
  FM172300 15005KT P6SM OVC100
  FM180500 15005KT P6SM OVC060
  FM180800 VRB03KT P6SM OVC030


KEWR 171435Z 1715/1818 02013KT P6SM BKN050
  FM171900 03013G19KT P6SM BKN030
  FM172200 03013G19KT P6SM BKN025
  FM180300 02015G22KT P6SM BKN020
  FM180800 01015G23KT P6SM VCSH BKN015


KFLL 171121Z 1712/1818 31010KT P6SM BKN010
  FM171500 32010KT P6SM FEW035 SCT050
  FM180000 VRB05KT P6SM FEW050
  FM181500 28008KT P6SM SCT030 SCT050


KIAD 171501Z 1715/1818 36007KT P6SM OVC020
  FM172000 01008KT P6SM OVC030
  FM180400 35006KT P6SM OVC015
  FM181100 34007KT P6SM BKN025


KIAH 171500Z 1715/1818 VRB04KT P6SM BKN250
  FM172100 27003KT P6SM SCT045 BKN250
  FM180300 VRB03KT P6SM BKN040 BKN250
  FM181200 34004KT 6SM BR FEW030 SCT250
  FM181500 35005KT P6SM SKC


KJFK 171435Z 1715/1818 04016G23KT P6SM BKN045
  TEMPO 1717/1719 BKN030
  FM171900 04016G23KT P6SM BKN030
  FM172300 04016G23KT P6SM BKN025
  FM180300 03016G23KT P6SM BKN020
  FM181000 02016G24KT 6SM -RA BKN015


KLAS 171436Z 1715/1818 VRB06KT P6SM SKC
  FM171900 05006KT P6SM SCT250
  FM180200 25006KT P6SM SCT250
  FM180800 VRB05KT P6SM SCT250
  FM181200 21005KT P6SM SCT250


KLAX 171455Z 1715/1818 00000KT P6SM SKC
  FM171700 VRB03KT P6SM SKC
  FM172100 26008KT P6SM SKC
  FM180400 VRB03KT P6SM SKC


KLGA 171435Z 1715/1818 04018G26KT P6SM BKN050
  TEMPO 1718/1720 BKN030
  FM172000 05016G24KT P6SM BKN030
  FM172300 05016G24KT P6SM BKN025
  FM180300 03017G25KT P6SM BKN020
  FM181000 02016G23KT 6SM -RA BKN015


KMCO 171459Z 1715/1818 31010KT P6SM OVC009
  FM171700 32011KT P6SM SCT011 BKN014
  FM171830 32010KT P6SM SCT020 BKN035
  FM172100 33010KT P6SM SCT035
  FM180200 34004KT P6SM BKN035
  FM181500 29008KT P6SM SCT030


KMDW 171503Z 1715/1818 17006KT P6SM OVC120
  FM172200 20006KT P6SM -RA SCT025 OVC050
  FM180200 22005KT 3SM -RADZ BR OVC015
  FM180500 27006KT 4SM -DZ BR SCT008 OVC010
  FM181300 30007KT P6SM OVC015


KMEM 171500Z 1715/1818 VRB03KT P6SM SCT250
  FM171700 26005KT P6SM SCT250
  FM180100 27003KT P6SM SCT030 BKN080
  FM180900 33006KT P6SM SCT030 BKN080


KMIA 171121Z 1712/1818 32010KT P6SM BKN010
  FM171500 33010KT P6SM FEW035 SCT050
  FM180000 VRB03KT P6SM FEW030
  FM181500 28007KT P6SM SCT030 SCT050


KMSP 171451Z 1715/1818 29008KT P6SM SCT015 BKN025 OVC040
  FM180200 VRB03KT P6SM OVC025


KORD 171501Z 1715/1818 17007KT P6SM OVC120
  FM172200 19006KT P6SM -RA SCT025 OVC050
  FM180200 22005KT 3SM -RADZ BR OVC015
  FM180500 27006KT 4SM -DZ BR SCT008 OVC010
  FM181300 30007KT P6SM OVC015


KPDX 171458Z 1715/1812 10007KT P6SM OVC080
  FM171700 15007KT P6SM -RA SCT025 OVC045
  FM172100 17008KT 6SM -RA BR SCT015 OVC030
  FM180100 VRB03KT P6SM SCT025 OVC040
  FM180600 VRB03KT 5SM BR BKN025 OVC035


KPHL 171447Z 1715/1818 03012G20KT P6SM BKN025 OVC035
  FM180700 02010G19KT P6SM OVC015
  FM181500 35008KT P6SM OVC015


KPHX 171459Z 1715/1818 11004KT P6SM SKC
  FM172300 29005KT P6SM FEW250
  FM180500 09004KT P6SM SKC


KPIT 171127Z 1712/1818 11006KT P6SM SKC
  FM181200 13003KT P6SM OVC050


KSAN 171135Z 1712/1818 VRB04KT P6SM FEW010
  FM172000 30008KT P6SM SKC
  FM180100 VRB04KT P6SM SKC


KSEA 171346Z 1714/1818 17008KT 6SM -RA BR SCT030 OVC040 WS020/23030KT
  FM171800 18010KT 5SM -RA BR BKN015 OVC030
  FM172200 20007KT P6SM VCSH OVC015
  FM180500 04003KT P6SM OVC020
  FM181600 08005KT P6SM VCSH OVC020


KSFO 171406Z 1714/1818 VRB04KT P6SM FEW007
  FM171800 04004KT P6SM FEW005
  FM172200 29010KT P6SM SKC
  FM180400 29005KT P6SM FEW005
  FM181200 VRB04KT P6SM FEW005


KSLC 171503Z 1715/1818 15006KT P6SM SCT200
  FM171900 34006KT P6SM SCT200
  FM180300 15006KT P6SM FEW200


KSTL 171337Z 1714/1818 13005KT 5SM BR OVC150
  FM171500 19007KT P6SM OVC100
  FM172200 22007KT P6SM -RA OVC026
  FM180100 28008KT P6SM OVC022


KTPA 171309Z 1713/1818 36008KT P6SM OVC008
  FM171500 01007KT P6SM SCT015
  TEMPO 1715/1718 BKN015
  FM171800 35008KT P6SM SCT030 SCT250
  FM172300 35005KT P6SM SCT250